Chapel Hill, North Carolina
Current Conditions -  °F | °C
As of 1:56 PM on Tuesday 27 Jan 2015 (Local Time) from KIGX Reporting Station
Clear Clear  
Wind Chill: 38°   Ceiling: Unl
Heat Index: 42°   Visibility: 10mi
Dew Point: 15°   Wind: 6mph
Humidity: 34%   Direction: NA
Pressure: 29.8"   Gusts: NA
Location:  35.91°N, 79.06°W
Report Text: KIGX 271856Z AUTO VRB05KT 10SM CLR 06/M09 A2980 RMK AO2 SLP093 T00561094
Loading
Personal Weather Stations






























Interactive Weather Map New forecast layout! Learn more

10-Day Weather Forecast

Advertisements
Track Severe Weather on mobile